Time;durP1;ratioP1;P1;durP2;ratioP2;P2;SDS_P1;SDS_P2;PMS_P1;PMS_P2;Temp;Humidity;BMP_temperature;BMP_pressure;BME280_temperature;BME280_humidity;BME280_pressure;Samples;Min_cycle;Max_cycle;Signal;HPM_P1;HPM_P2
2023/12/18 00:01:29;;;;;;;25.30;23.40;;;;;;;-1.01;100.00;103017.63;5017983;28;20054;-74
2023/12/18 00:03:56;;;;;;;31.20;28.80;;;;;;;-0.86;100.00;103032.53;4990711;28;20062;-73
2023/12/18 00:06:23;;;;;;;31.13;28.58;;;;;;;-0.83;100.00;103029.78;5006626;28;20466;-72
2023/12/18 00:08:52;;;;;;;29.17;26.92;;;;;;;-0.87;100.00;103020.44;5016641;28;20053;-74
2023/12/18 00:11:25;;;;;;;30.48;27.58;;;;;;;-1.04;100.00;103026.44;5002088;28;20054;-74
2023/12/18 00:13:53;;;;;;;31.00;28.52;;;;;;;-1.09;100.00;103025.84;5005744;28;20053;-73
2023/12/18 00:16:34;;;;;;;33.58;30.92;;;;;;;-1.18;100.00;103011.47;5007011;28;20491;-73
2023/12/18 00:19:08;;;;;;;30.83;28.45;;;;;;;-1.05;100.00;103008.28;5004432;28;20053;-73
2023/12/18 00:21:35;;;;;;;35.70;32.72;;;;;;;-1.04;100.00;103007.34;5020120;28;20050;-73
2023/12/18 00:24:21;;;;;;;35.00;32.40;;;;;;;-1.03;100.00;103014.25;5011639;28;20490;-74
2023/12/18 00:26:48;;;;;;;41.83;32.72;;;;;;;-1.11;100.00;103017.25;5021032;28;20507;-73
2023/12/18 00:29:16;;;;;;;35.40;32.60;;;;;;;-1.22;100.00;103015.13;5013687;28;20524;-74
2023/12/18 00:31:43;;;;;;;37.22;34.10;;;;;;;-1.10;100.00;103008.47;5021239;28;20062;-74
2023/12/18 00:34:16;;;;;;;37.78;34.58;;;;;;;-0.98;100.00;103007.88;5006831;28;20042;-73
2023/12/18 00:36:44;;;;;;;39.97;36.67;;;;;;;-0.91;100.00;103003.22;5017167;28;20532;-73
2023/12/18 00:39:15;;;;;;;39.63;36.50;;;;;;;-0.96;100.00;102997.41;4998621;28;20050;-73
2023/12/18 00:41:48;;;;;;;37.30;33.95;;;;;;;-0.94;100.00;103003.38;5009277;28;20049;-73
2023/12/18 00:44:16;;;;;;;37.42;34.53;;;;;;;-0.87;100.00;103002.16;5009792;28;20049;-74
2023/12/18 00:46:43;;;;;;;40.85;37.80;;;;;;;-0.86;100.00;103000.38;5009147;28;20454;-74
2023/12/18 00:49:10;;;;;;;38.35;35.20;;;;;;;-0.83;100.00;102997.63;5010855;28;20084;-74
2023/12/18 00:51:37;;;;;;;33.35;30.73;;;;;;;-0.87;100.00;102998.72;5012453;28;20065;-74
2023/12/18 00:54:04;;;;;;;32.25;29.75;;;;;;;-0.97;100.00;102991.34;5008609;28;20056;-74
2023/12/18 00:56:31;;;;;;;32.25;29.63;;;;;;;-1.13;100.00;102990.38;5014406;28;20054;-74
2023/12/18 00:58:57;;;;;;;32.70;30.02;;;;;;;-1.01;100.00;102986.34;5022344;28;20480;-74
2023/12/18 01:01:26;;;;;;;34.75;31.95;;;;;;;-1.07;100.00;102979.66;4992585;28;21157;-73
2023/12/18 01:04:03;;;;;;;35.22;32.15;;;;;;;-1.22;100.00;102981.22;5012967;28;20050;-74
2023/12/18 01:06:30;;;;;;;33.75;31.15;;;;;;;-1.15;100.00;102966.13;5016750;28;20092;-74
2023/12/18 01:08:57;;;;;;;37.80;34.53;;;;;;;-1.10;100.00;102985.00;5014495;28;20068;-73
2023/12/18 01:11:25;;;;;;;35.88;33.17;;;;;;;-1.02;100.00;102979.44;5020997;28;20433;-75
2023/12/18 01:13:52;;;;;;;38.28;35.47;;;;;;;-0.96;100.00;102979.13;5013936;28;20052;-74
2023/12/18 01:16:20;;;;;;;36.80;34.00;;;;;;;-0.80;100.00;102968.78;5007445;28;20054;-74
2023/12/18 01:18:49;;;;;;;39.75;36.85;;;;;;;-0.99;100.00;102968.84;5009268;28;20050;-74
2023/12/18 01:21:22;;;;;;;33.15;30.55;;;;;;;-0.83;100.00;102968.94;5007313;28;20076;-74
2023/12/18 01:23:48;;;;;;;30.90;28.50;;;;;;;-1.12;100.00;102966.00;5019101;28;20053;-74
2023/12/18 01:26:15;;;;;;;38.22;30.92;;;;;;;-1.03;100.00;102960.34;5007562;28;20054;-74
2023/12/18 01:28:42;;;;;;;35.78;33.17;;;;;;;-1.13;100.00;102951.25;4999748;28;20054;-73
2023/12/18 01:31:09;;;;;;;34.28;31.70;;;;;;;-1.07;100.00;102945.72;5017169;28;20061;-73
2023/12/18 01:33:39;;;;;;;34.40;31.60;;;;;;;-1.12;100.00;102952.97;5015230;28;20464;-73
2023/12/18 01:36:07;;;;;;;31.30;29.00;;;;;;;-1.15;100.00;102955.69;5013229;28;20054;-73
2023/12/18 01:38:34;;;;;;;33.95;31.45;;;;;;;-1.50;100.00;102960.00;5018036;28;20445;-74
2023/12/18 01:41:01;;;;;;;36.72;33.45;;;;;;;-1.42;100.00;102953.53;5013570;28;20049;-74
2023/12/18 01:43:28;;;;;;;36.63;33.92;;;;;;;-1.38;100.00;102942.00;5016672;28;20057;-74
2023/12/18 01:45:59;;;;;;;42.72;39.63;;;;;;;-1.00;100.00;102931.50;5010370;28;20049;-73
2023/12/18 01:48:27;;;;;;;33.50;31.00;;;;;;;-1.18;100.00;102928.03;5013343;28;20054;-73
2023/12/18 01:50:55;;;;;;;31.80;29.45;;;;;;;-1.21;100.00;102932.53;5016124;28;20108;-74
2023/12/18 01:53:24;;;;;;;35.00;32.45;;;;;;;-1.17;100.00;102931.47;5009584;28;20104;-74
2023/12/18 01:55:51;;;;;;;33.78;31.27;;;;;;;-1.27;100.00;102927.59;5018156;28;20050;-73
2023/12/18 01:58:19;;;;;;;33.92;31.48;;;;;;;-1.31;100.00;102923.47;5008428;28;20093;-74
2023/12/18 02:00:47;;;;;;;40.08;37.03;;;;;;;-1.30;100.00;102923.41;5023444;28;20053;-74
2023/12/18 02:03:16;;;;;;;31.15;28.85;;;;;;;-1.16;100.00;102925.31;5028844;28;20139;-73
2023/12/18 02:05:45;;;;;;;32.55;30.15;;;;;;;-1.06;100.00;102917.88;5023913;28;20505;-74
2023/12/18 02:08:12;;;;;;;31.25;28.92;;;;;;;-1.28;100.00;102913.72;5028900;28;20056;-74
2023/12/18 02:10:41;;;;;;;34.45;31.95;;;;;;;-1.15;100.00;102903.53;5007140;28;20471;-75
2023/12/18 02:13:16;;;;;;;33.92;31.33;;;;;;;-1.28;100.00;102903.28;5007490;28;20042;-74
2023/12/18 02:15:43;;;;;;;33.33;30.90;;;;;;;-1.30;100.00;102892.13;5020146;28;20454;-74
2023/12/18 02:18:10;;;;;;;38.42;35.72;;;;;;;-1.13;100.00;102887.81;5009834;28;20507;-74
2023/12/18 02:20:37;;;;;;;37.90;35.10;;;;;;;-0.98;100.00;102885.28;4997964;28;20046;-74
2023/12/18 02:23:05;;;;;;;38.10;35.00;;;;;;;-0.72;100.00;102885.72;5021117;28;20829;-74
2023/12/18 02:25:32;;;;;;;40.00;36.45;;;;;;;-0.58;100.00;102882.38;5011012;28;20061;-74
2023/12/18 02:28:12;;;;;;;39.90;37.10;;;;;;;-0.20;100.00;102885.56;5006520;28;20061;-73
2023/12/18 02:30:39;;;;;;;40.38;36.80;;;;;;;-0.25;100.00;102882.38;5020181;28;20045;-75
2023/12/18 02:33:06;;;;;;;36.80;34.05;;;;;;;0.01;100.00;102882.72;5011441;28;20573;-74
2023/12/18 02:35:33;;;;;;;34.78;32.28;;;;;;;-0.30;100.00;102881.78;5017198;28;20640;-75
2023/12/18 02:38:05;;;;;;;34.83;32.33;;;;;;;-0.39;100.00;102885.72;5018655;28;20064;-74
2023/12/18 02:40:47;;;;;;;36.97;34.33;;;;;;;-0.23;100.00;102893.59;5012475;28;20050;-74
2023/12/18 02:43:14;;;;;;;34.35;32.15;;;;;;;-0.14;100.00;102897.47;5009828;28;20045;-74
2023/12/18 02:45:43;;;;;;;38.78;36.20;;;;;;;0.56;100.00;102890.09;5017570;28;20428;-74
2023/12/18 02:48:11;;;;;;;32.15;29.95;;;;;;;0.26;100.00;102880.44;5011299;28;20046;-74
2023/12/18 02:50:38;;;;;;;35.40;32.90;;;;;;;0.02;100.00;102880.03;5016008;28;20050;-73
2023/12/18 02:53:07;;;;;;;38.85;36.15;;;;;;;0.43;100.00;102880.34;5022489;28;20057;-75
2023/12/18 02:55:35;;;;;;;35.42;32.92;;;;;;;0.44;100.00;102884.63;5010960;28;20445;-75
2023/12/18 02:58:02;;;;;;;33.40;31.20;;;;;;;0.53;100.00;102872.81;5023844;28;20580;-74
2023/12/18 03:00:29;;;;;;;39.72;36.90;;;;;;;0.62;100.00;102879.28;5019468;28;20053;-75
2023/12/18 03:02:56;;;;;;;44.60;41.45;;;;;;;0.78;100.00;102880.06;4995906;28;20046;-74
2023/12/18 03:05:26;;;;;;;39.00;36.50;;;;;;;1.04;100.00;102873.31;5009286;28;20053;-73
2023/12/18 03:07:53;;;;;;;37.30;35.00;;;;;;;0.79;100.00;102880.94;5019165;28;20561;-74
2023/12/18 03:10:22;;;;;;;40.35;37.85;;;;;;;0.59;100.00;102879.47;5014572;28;20050;-74
2023/12/18 03:12:51;;;;;;;37.97;35.38;;;;;;;0.10;100.00;102877.00;5006572;28;20050;-73
2023/12/18 03:15:24;;;;;;;37.30;34.80;;;;;;;-0.24;100.00;102884.06;5009267;28;20050;-73
2023/12/18 03:17:50;;;;;;;;;;;;;;;-0.29;100.00;102873.84;5004703;28;20060;-74
2023/12/18 03:20:17;;;;;;;33.92;31.42;;;;;;;-0.13;100.00;102876.47;5010598;28;20318;-74
2023/12/18 03:22:44;;;;;;;37.65;34.97;;;;;;;0.60;100.00;102868.06;5012640;28;20057;-73
2023/12/18 03:25:11;;;;;;;38.13;35.22;;;;;;;0.54;100.00;102864.03;5016963;28;20049;-73
2023/12/18 03:27:39;;;;;;;40.85;38.03;;;;;;;0.61;100.00;102867.97;5007553;28;20050;-73
2023/12/18 03:30:08;;;;;;;37.22;34.75;;;;;;;0.59;100.00;102869.84;5010946;28;20058;-73
2023/12/18 03:32:35;;;;;;;34.55;32.40;;;;;;;0.79;100.00;102876.53;4999798;28;20054;-74
2023/12/18 03:35:02;;;;;;;37.13;34.40;;;;;;;1.22;100.00;102870.53;5014389;28;20667;-74
2023/12/18 03:37:28;;;;;;;34.85;32.60;;;;;;;1.14;100.00;102871.00;5015061;28;20514;-73
2023/12/18 03:40:08;;;;;;;37.72;35.53;;;;;;;1.18;100.00;102864.66;5010574;28;20049;-73
2023/12/18 03:42:35;;;;;;;38.42;35.65;;;;;;;1.06;100.00;102861.00;5010495;28;20494;-73
2023/12/18 03:45:15;;;;;;;37.63;35.13;;;;;;;0.96;100.00;102864.22;5014072;28;20072;-74
2023/12/18 03:47:41;;;;;;;36.67;34.28;;;;;;;0.86;100.00;102866.56;5012279;28;20462;-73
2023/12/18 03:50:26;;;;;;;42.67;39.95;;;;;;;0.96;100.00;102859.00;5017896;28;20046;-74
2023/12/18 03:52:57;;;;;;;39.60;37.10;;;;;;;0.84;100.00;102860.56;5018447;28;21699;-73
2023/12/18 03:55:24;;;;;;;37.17;34.78;;;;;;;0.89;100.00;102861.16;4995229;28;20049;-75
2023/12/18 03:57:54;;;;;;;35.10;32.80;;;;;;;0.70;100.00;102874.47;5001867;28;20058;-75
2023/12/18 04:00:23;;;;;;;28.15;26.15;;;;;;;0.66;100.00;102872.94;4997723;28;20058;-74
2023/12/18 04:02:49;;;;;;;33.47;30.63;;;;;;;0.07;100.00;102870.16;4994988;28;20050;-74
2023/12/18 04:05:16;;;;;;;31.45;29.05;;;;;;;0.20;100.00;102867.72;5010459;28;20049;-75
2023/12/18 04:07:43;;;;;;;29.58;27.17;;;;;;;-0.04;100.00;102872.53;5006150;28;20057;-74
2023/12/18 04:10:11;;;;;;;28.00;25.80;;;;;;;-0.31;100.00;102870.47;5014261;28;20478;-73
2023/12/18 04:12:38;;;;;;;28.48;26.38;;;;;;;-0.51;100.00;102871.56;5009476;28;20050;-74
2023/12/18 04:15:24;;;;;;;31.52;29.05;;;;;;;-0.57;100.00;102871.03;5014977;28;20046;-74
2023/12/18 04:17:57;;;;;;;32.85;30.33;;;;;;;-0.70;100.00;102866.47;4994731;28;20133;-74
2023/12/18 04:20:26;;;;;;;31.02;28.83;;;;;;;-0.61;100.00;102866.88;5009730;28;20054;-75
2023/12/18 04:22:53;;;;;;;28.50;26.40;;;;;;;-0.78;100.00;102879.06;5018260;28;20084;-74
2023/12/18 04:25:30;;;;;;;26.85;24.60;;;;;;;-0.87;100.00;102881.28;5013848;28;20053;-74
2023/12/18 04:27:57;;;;;;;26.05;23.85;;;;;;;-0.99;100.00;102881.00;5001000;28;20798;-73
2023/12/18 04:30:25;;;;;;;29.38;26.90;;;;;;;-1.09;100.00;102882.38;5010373;28;20045;-74
2023/12/18 04:32:52;;;;;;;30.80;28.27;;;;;;;-1.06;100.00;102873.53;5011643;28;20052;-74
2023/12/18 04:35:20;;;;;;;28.40;26.35;;;;;;;-1.08;100.00;102870.19;5007905;28;20046;-74
2023/12/18 04:37:47;;;;;;;29.70;27.33;;;;;;;-1.09;100.00;102861.53;5020462;28;20054;-74
2023/12/18 04:40:14;;;;;;;31.88;29.85;;;;;;;-1.08;100.00;102860.59;5007188;28;20145;-74
2023/12/18 04:42:41;;;;;;;33.75;31.10;;;;;;;-1.23;100.00;102856.16;5012564;28;20053;-74
2023/12/18 04:45:09;;;;;;;32.80;30.60;;;;;;;-1.36;100.00;102855.06;5007396;28;20437;-72
2023/12/18 04:47:37;;;;;;;31.70;29.40;;;;;;;-1.49;100.00;102847.84;5009099;28;20044;-74
2023/12/18 04:50:05;;;;;;;31.38;28.98;;;;;;;-1.57;100.00;102844.78;5007322;28;20065;-73
2023/12/18 04:52:43;;;;;;;28.73;26.75;;;;;;;-1.28;100.00;102845.94;5015907;28;20057;-73
2023/12/18 04:55:09;;;;;;;26.27;24.08;;;;;;;-1.27;100.00;102847.63;5009676;28;20050;-73
2023/12/18 04:57:37;;;;;;;29.33;27.23;;;;;;;-1.39;100.00;102850.84;5004362;28;20049;-74
2023/12/18 05:00:04;;;;;;;28.20;26.27;;;;;;;-1.35;100.00;102855.00;5010931;28;20057;-74
2023/12/18 05:02:38;;;;;;;36.78;34.08;;;;;;;3.57;100.00;102856.94;5018953;28;20115;-73
2023/12/18 05:05:05;;;;;;;28.20;26.10;;;;;;;-0.58;100.00;102853.66;5015055;28;20108;-74
2023/12/18 05:07:35;;;;;;;27.27;25.48;;;;;;;-0.87;100.00;102853.44;5008790;28;20050;-74
2023/12/18 05:10:02;;;;;;;29.27;27.08;;;;;;;-1.08;100.00;102842.34;5008825;28;20042;-74
2023/12/18 05:12:29;;;;;;;33.63;31.02;;;;;;;-0.80;100.00;102838.28;5009432;28;20494;-74
2023/12/18 05:15:10;;;;;;;30.60;28.60;;;;;;;-0.96;100.00;102839.09;5008621;28;20438;-74
2023/12/18 05:17:45;;;;;;;26.92;24.92;;;;;;;-0.77;100.00;102843.34;5019019;28;20438;-74
2023/12/18 05:20:12;;;;;;;28.02;25.92;;;;;;;-0.56;100.00;102846.59;5015624;28;20533;-73
2023/12/18 05:22:39;;;;;;;25.40;23.60;;;;;;;-0.58;100.00;102859.72;5012575;28;20049;-74
2023/12/18 05:25:09;;;;;;;26.83;24.83;;;;;;;-0.51;100.00;102855.03;5020464;28;20041;-75
2023/12/18 05:27:36;;;;;;;25.85;23.95;;;;;;;-0.41;100.00;102844.94;5010647;28;20050;-73
2023/12/18 05:30:03;;;;;;;29.05;26.75;;;;;;;0.08;100.00;102847.47;5014720;28;20510;-74
2023/12/18 05:32:44;;;;;;;28.85;26.75;;;;;;;0.62;100.00;102843.50;5010794;28;20793;-74
2023/12/18 05:35:11;;;;;;;27.13;25.15;;;;;;;0.68;100.00;102835.31;5018933;28;20084;-74
2023/12/18 05:37:38;;;;;;;27.25;25.25;;;;;;;0.83;100.00;102836.19;5010829;28;20469;-73
2023/12/18 05:40:08;;;;;;;24.75;22.95;;;;;;;0.49;100.00;102833.84;5010525;28;20050;-74
2023/12/18 05:42:35;;;;;;;26.77;24.77;;;;;;;-0.13;100.00;102845.13;4993891;28;20060;-74
2023/12/18 05:45:02;;;;;;;23.95;22.20;;;;;;;-0.54;100.00;102839.53;4998292;28;20066;-73
2023/12/18 05:47:33;;;;;;;24.73;22.92;;;;;;;-0.58;100.00;102831.00;4996936;28;20166;-74
2023/12/18 05:50:02;;;;;;;24.58;22.88;;;;;;;-0.45;100.00;102828.59;5027181;28;20050;-73
2023/12/18 05:52:29;;;;;;;24.08;22.38;;;;;;;-0.61;100.00;102835.56;5009525;28;20050;-73
2023/12/18 05:54:56;;;;;;;24.30;22.50;;;;;;;-0.83;100.00;102831.47;5031253;28;20049;-74
2023/12/18 05:57:24;;;;;;;22.77;21.27;;;;;;;-0.89;100.00;102834.41;5024350;28;20062;-74
2023/12/18 05:59:57;;;;;;;26.15;24.45;;;;;;;-0.94;100.00;102824.22;5014612;28;20057;-74
2023/12/18 06:02:30;;;;;;;28.35;25.90;;;;;;;-0.85;100.00;102822.03;5010942;28;20056;-75
2023/12/18 06:05:07;;;;;;;26.08;24.27;;;;;;;-0.81;100.00;102813.97;5019058;28;20046;-73
2023/12/18 06:07:33;;;;;;;26.42;24.73;;;;;;;-0.79;100.00;102817.31;4995081;28;20049;-75
2023/12/18 06:10:00;;;;;;;28.25;26.25;;;;;;;-0.40;100.00;102820.50;5011312;28;20054;-73
2023/12/18 06:12:27;;;;;;;28.88;26.77;;;;;;;0.43;100.00;102827.22;5011931;28;20057;-73
2023/12/18 06:14:57;;;;;;;29.52;27.42;;;;;;;0.57;100.00;102822.00;4994910;28;20061;-74
2023/12/18 06:17:24;;;;;;;27.95;25.92;;;;;;;0.33;100.00;102828.63;5008395;28;20516;-73
2023/12/18 06:19:50;;;;;;;29.40;27.10;;;;;;;0.79;100.00;102832.06;5003587;28;20050;-73
2023/12/18 06:22:19;;;;;;;29.15;26.85;;;;;;;1.06;100.00;102826.09;5006777;28;20446;-74
2023/12/18 06:24:45;;;;;;;29.23;27.08;;;;;;;1.60;100.00;102827.16;5010278;28;20050;-74
2023/12/18 06:27:18;;;;;;;28.95;26.95;;;;;;;1.98;100.00;102833.50;5007104;28;20060;-74
2023/12/18 06:29:55;;;;;;;28.33;26.42;;;;;;;2.55;100.00;102828.03;4996243;28;20042;-74
2023/12/18 06:32:21;;;;;;;30.80;28.70;;;;;;;2.51;100.00;102829.16;5003972;28;20054;-75
2023/12/18 06:34:48;;;;;;;28.00;26.20;;;;;;;3.16;100.00;102833.56;5004238;28;20056;-75
2023/12/18 06:37:15;;;;;;;27.05;25.25;;;;;;;3.18;100.00;102829.88;5009623;28;20057;-76
2023/12/18 06:39:46;;;;;;;31.52;29.38;;;;;;;3.19;100.00;102828.94;5003301;28;20922;-74
2023/12/18 06:42:13;;;;;;;33.10;30.95;;;;;;;3.17;100.00;102835.22;5008881;28;20096;-74
2023/12/18 06:44:40;;;;;;;33.95;31.75;;;;;;;3.74;100.00;102836.50;5003941;28;20045;-74
2023/12/18 06:47:07;;;;;;;33.33;31.02;;;;;;;4.01;100.00;102831.91;5009827;28;20058;-74
2023/12/18 06:49:34;;;;;;;32.03;29.85;;;;;;;3.79;100.00;102835.25;5011008;28;20054;-73
2023/12/18 06:52:01;;;;;;;33.85;31.55;;;;;;;4.97;100.00;102817.75;5000454;28;20045;-74
2023/12/18 06:54:37;;;;;;;33.83;31.42;;;;;;;4.49;100.00;102810.81;5010551;28;20054;-74
2023/12/18 06:57:05;;;;;;;30.38;28.35;;;;;;;5.12;100.00;102807.84;5003313;28;20443;-73
2023/12/18 06:59:32;;;;;;;35.70;33.40;;;;;;;4.28;100.00;102812.41;4998216;28;20061;-73
2023/12/18 07:01:59;;;;;;;31.25;29.05;;;;;;;5.28;100.00;102816.22;5010626;28;20491;-74
2023/12/18 07:04:26;;;;;;;31.52;29.33;;;;;;;5.88;100.00;102817.56;5008164;28;20057;-74
2023/12/18 07:06:53;;;;;;;31.98;29.77;;;;;;;5.33;100.00;102829.88;5007834;28;20050;-75
2023/12/18 07:09:19;;;;;;;28.58;26.48;;;;;;;5.73;100.00;102824.09;5010096;28;20054;-74
2023/12/18 07:11:49;;;;;;;34.00;31.27;;;;;;;6.05;100.00;102818.03;5010773;28;20129;-74
2023/12/18 07:14:19;;;;;;;34.22;31.60;;;;;;;6.27;100.00;102815.31;5004046;28;20061;-73
2023/12/18 07:16:46;;;;;;;34.65;32.25;;;;;;;6.48;100.00;102810.06;5010323;28;20056;-73
2023/12/18 07:19:17;;;;;;;31.17;28.92;;;;;;;6.42;100.00;102800.84;4998770;28;20052;-74
2023/12/18 07:21:53;;;;;;;31.70;29.40;;;;;;;6.68;100.00;102792.53;5010000;28;20054;-73
2023/12/18 07:24:20;;;;;;;38.70;35.80;;;;;;;7.16;100.00;102799.06;5007168;28;20054;-74
2023/12/18 07:26:47;;;;;;;35.35;32.85;;;;;;;6.96;100.00;102806.91;5009368;28;20418;-75
2023/12/18 07:29:21;;;;;;;32.22;29.83;;;;;;;7.47;100.00;102815.72;5005680;28;20495;-74
2023/12/18 07:31:48;;;;;;;32.28;30.08;;;;;;;7.16;100.00;102815.75;5010319;28;20057;-74
2023/12/18 07:34:15;;;;;;;31.80;29.60;;;;;;;7.85;100.00;102812.34;5002656;28;20061;-76
2023/12/18 07:36:43;;;;;;;31.20;29.10;;;;;;;7.70;100.00;102813.72;5004105;28;20741;-75
2023/12/18 07:39:10;;;;;;;30.00;28.00;;;;;;;7.82;100.00;102803.84;5008977;28;20050;-74
2023/12/18 07:41:37;;;;;;;26.90;25.10;;;;;;;7.82;100.00;102807.31;5011134;28;20049;-74
2023/12/18 07:44:03;;;;;;;26.33;24.48;;;;;;;8.13;100.00;102813.34;5008554;28;20046;-73
2023/12/18 07:46:32;;;;;;;24.70;23.00;;;;;;;8.40;100.00;102803.91;5009607;28;20107;-74
2023/12/18 07:48:59;;;;;;;25.08;23.45;;;;;;;7.56;100.00;102799.03;5009024;28;20542;-74
2023/12/18 07:51:25;;;;;;;23.70;22.20;;;;;;;8.32;100.00;102799.28;5007262;28;20056;-74
2023/12/18 07:53:53;;;;;;;21.55;19.88;;;;;;;7.56;100.00;102807.84;5007603;28;20526;-74
2023/12/18 07:56:19;;;;;;;21.23;19.83;;;;;;;7.24;100.00;102812.44;5008162;28;20046;-75
2023/12/18 07:58:46;;;;;;;20.65;19.25;;;;;;;6.39;100.00;102801.13;5007248;28;20054;-74
2023/12/18 08:01:16;;;;;;;20.75;19.35;;;;;;;7.87;100.00;102801.63;5008756;28;20105;-73
2023/12/18 08:03:44;;;;;;;22.40;20.90;;;;;;;8.53;100.00;102777.94;5009182;28;20117;-74
2023/12/18 08:06:11;;;;;;;21.00;19.60;;;;;;;6.85;100.00;102783.19;5005282;28;20049;-74
2023/12/18 08:08:38;;;;;;;21.98;20.42;;;;;;;6.86;100.00;102780.41;5001660;28;20046;-74
2023/12/18 08:11:05;;;;;;;22.27;20.70;;;;;;;6.94;100.00;102787.69;4934315;28;20046;-74
2023/12/18 08:13:37;;;;;;;21.50;20.00;;;;;;;7.74;100.00;102789.47;4987734;28;20173;-75
2023/12/18 08:16:05;;;;;;;20.52;19.13;;;;;;;7.53;100.00;102778.16;4985433;28;20058;-74
2023/12/18 08:18:32;;;;;;;20.50;19.10;;;;;;;7.01;100.00;102778.25;4985409;28;20053;-73
2023/12/18 08:21:01;;;;;;;21.02;19.58;;;;;;;7.79;100.00;102770.56;4983093;28;20057;-75
2023/12/18 08:23:27;;;;;;;20.95;19.55;;;;;;;8.29;100.00;102765.16;4980553;28;20056;-74
2023/12/18 08:25:55;;;;;;;21.08;19.67;;;;;;;7.71;100.00;102767.75;4988653;28;20057;-74
2023/12/18 08:28:25;;;;;;;20.58;19.20;;;;;;;8.67;100.00;102753.66;4988894;28;20050;-74
2023/12/18 08:31:02;;;;;;;20.98;19.58;;;;;;;8.70;100.00;102756.03;4977388;28;20054;-74
2023/12/18 08:33:29;;;;;;;21.58;20.15;;;;;;;8.05;100.00;102749.69;4983376;28;20479;-74
2023/12/18 08:35:56;;;;;;;20.55;19.15;;;;;;;9.39;100.00;102746.81;4985996;28;20057;-74
2023/12/18 08:38:24;;;;;;;21.67;20.17;;;;;;;8.09;100.00;102742.31;4984654;28;20058;-74
2023/12/18 08:40:51;;;;;;;22.02;20.52;;;;;;;8.09;100.00;102734.38;4984676;28;20531;-75
2023/12/18 08:43:28;;;;;;;21.30;19.90;;;;;;;7.69;100.00;102736.16;4988202;28;20051;-74
2023/12/18 08:45:55;;;;;;;23.02;21.52;;;;;;;8.20;100.00;102726.25;4986329;28;20052;-74
2023/12/18 08:48:22;;;;;;;22.15;20.65;;;;;;;9.29;100.00;102734.56;4987490;28;20068;-74
2023/12/18 08:50:49;;;;;;;21.33;19.83;;;;;;;11.14;100.00;102749.69;4988652;28;20058;-76
2023/12/18 08:53:16;;;;;;;20.33;18.92;;;;;;;7.66;100.00;102757.59;4978320;28;20061;-75
2023/12/18 08:55:44;;;;;;;20.92;19.52;;;;;;;8.27;100.00;102749.38;4984560;28;20077;-75
2023/12/18 08:58:12;;;;;;;22.10;20.63;;;;;;;8.76;100.00;102743.19;4988106;28;20054;-74
2023/12/18 09:00:39;;;;;;;21.52;20.13;;;;;;;9.29;100.00;102740.72;4988183;28;20054;-74
2023/12/18 09:03:06;;;;;;;20.45;19.05;;;;;;;8.52;100.00;102748.97;4988124;28;20436;-74
2023/12/18 09:05:33;;;;;;;20.55;19.15;;;;;;;9.76;100.00;102753.00;4977787;28;20047;-74
2023/12/18 09:08:00;;;;;;;24.15;21.48;;;;;;;9.96;100.00;102738.59;4982907;28;20057;-73
2023/12/18 09:10:30;;;;;;;22.23;20.73;;;;;;;8.40;100.00;102722.63;4983526;28;20081;-75
2023/12/18 09:13:03;;;;;;;21.63;20.13;;;;;;;8.09;100.00;102715.84;4987262;28;20129;-75
2023/12/18 09:15:30;;;;;;;20.77;19.27;;;;;;;10.19;100.00;102704.41;4974295;28;20082;-74
2023/12/18 09:17:56;;;;;;;21.30;19.90;;;;;;;12.06;100.00;102711.44;4985819;28;20763;-74
2023/12/18 09:20:23;;;;;;;22.15;20.55;;;;;;;12.36;100.00;102709.06;4998845;28;20953;-73
2023/12/18 09:22:51;;;;;;;21.67;20.10;;;;;;;8.43;100.00;102714.41;4988571;28;20055;-73
2023/12/18 09:25:18;;;;;;;24.95;22.38;;;;;;;9.51;100.00;102717.44;4975665;28;20078;-75
2023/12/18 09:27:59;;;;;;;21.67;20.27;;;;;;;10.54;100.00;102702.69;4989281;28;20050;-75
2023/12/18 09:30:28;;;;;;;23.38;21.65;;;;;;;8.75;100.00;102705.28;4982548;28;20050;-73
2023/12/18 09:32:56;;;;;;;21.70;20.20;;;;;;;9.85;100.00;102701.66;4988014;28;20424;-73
2023/12/18 09:35:23;;;;;;;22.92;21.13;;;;;;;11.15;100.00;102696.31;4978542;28;20057;-74
2023/12/18 09:37:52;;;;;;;21.35;19.75;;;;;;;10.60;100.00;102696.75;4982410;28;20058;-73
2023/12/18 09:40:19;;;;;;;23.20;21.50;;;;;;;9.61;100.00;102691.66;4973789;28;20423;-74
2023/12/18 09:42:53;;;;;;;21.95;20.45;;;;;;;9.48;100.00;102691.19;4990670;28;20051;-72
2023/12/18 09:45:22;;;;;;;22.25;20.75;;;;;;;10.65;100.00;102697.13;4979263;28;20506;-73
2023/12/18 09:47:51;;;;;;;22.20;20.70;;;;;;;11.39;100.00;102694.72;4992634;28;20081;-73
2023/12/18 09:50:18;;;;;;;21.55;19.95;;;;;;;9.58;100.00;102700.75;4988318;28;20057;-74
2023/12/18 09:52:52;;;;;;;22.92;21.25;;;;;;;8.41;100.00;102699.63;4982381;28;20070;-73
2023/12/18 09:55:20;;;;;;;23.17;21.00;;;;;;;11.23;100.00;102698.19;4982782;28;20101;-74
2023/12/18 09:57:50;;;;;;;21.88;20.27;;;;;;;10.25;100.00;102697.66;4980364;28;20050;-75
2023/12/18 10:00:20;;;;;;;22.33;20.73;;;;;;;9.73;100.00;102685.13;4981033;28;20046;-75
2023/12/18 10:02:47;;;;;;;21.48;19.98;;;;;;;8.79;100.00;102700.50;4979900;28;20055;-74
2023/12/18 10:05:16;;;;;;;21.60;20.05;;;;;;;9.37;100.00;102694.88;4975006;28;20042;-74
2023/12/18 10:07:43;;;;;;;22.08;20.48;;;;;;;9.76;100.00;102697.25;4987033;28;20113;-74
2023/12/18 10:10:10;;;;;;;22.35;20.75;;;;;;;9.34;100.00;102693.38;4989009;28;20112;-74
2023/12/18 10:12:39;;;;;;;21.27;19.77;;;;;;;10.00;100.00;102694.81;4978023;28;20062;-74
2023/12/18 10:15:07;;;;;;;21.42;19.83;;;;;;;9.08;100.00;102679.19;4986602;28;20054;-72
2023/12/18 10:17:34;;;;;;;22.40;20.70;;;;;;;9.08;100.00;102677.34;4985918;28;20042;-74
2023/12/18 10:20:09;;;;;;;21.27;19.70;;;;;;;8.72;100.00;102652.56;4987346;28;20050;-73
2023/12/18 10:22:38;;;;;;;21.20;19.70;;;;;;;11.21;100.00;102644.28;4985514;28;20050;-73
2023/12/18 10:25:05;;;;;;;20.80;19.30;;;;;;;11.31;100.00;102630.84;4979616;28;20413;-74
2023/12/18 10:27:32;;;;;;;21.45;19.85;;;;;;;11.64;100.00;102621.06;4974565;28;20113;-74
2023/12/18 10:30:00;;;;;;;22.08;20.48;;;;;;;11.86;100.00;102615.09;4957706;28;20043;-73
2023/12/18 10:32:27;;;;;;;21.58;19.98;;;;;;;11.13;100.00;102621.16;4976502;28;20215;-74
2023/12/18 10:34:55;;;;;;;21.40;19.80;;;;;;;9.92;100.00;102617.75;4972181;28;20097;-74
2023/12/18 10:37:24;;;;;;;21.92;20.33;;;;;;;10.14;100.00;102620.91;4990861;28;20051;-75
2023/12/18 10:39:58;;;;;;;22.40;20.70;;;;;;;9.87;100.00;102617.41;4978229;28;20070;-75
2023/12/18 10:42:33;;;;;;;20.10;18.60;;;;;;;11.13;100.00;102610.53;4990461;28;20051;-74
2023/12/18 10:45:01;;;;;;;20.88;19.38;;;;;;;10.36;100.00;102620.41;5000258;28;20058;-74
2023/12/18 10:47:31;;;;;;;22.10;20.50;;;;;;;11.20;100.00;102610.72;4988114;28;20054;-76
2023/12/18 10:50:04;;;;;;;21.17;19.67;;;;;;;9.78;100.00;102611.22;4988960;28;20046;-75
2023/12/18 10:52:34;;;;;;;20.77;19.27;;;;;;;10.42;100.00;102618.94;4996470;28;20615;-74
2023/12/18 10:55:03;;;;;;;21.30;19.70;;;;;;;10.41;100.00;102606.63;4982423;28;20753;-74
2023/12/18 10:57:33;;;;;;;22.33;20.63;;;;;;;10.64;100.00;102607.72;4991243;28;20058;-75
2023/12/18 11:00:00;;;;;;;22.00;20.30;;;;;;;10.04;100.00;102603.25;4979339;28;20047;-73
2023/12/18 11:02:28;;;;;;;20.90;19.40;;;;;;;9.96;100.00;102602.38;4992323;28;20046;-74
2023/12/18 11:04:55;;;;;;;22.90;20.73;;;;;;;10.88;100.00;102599.00;4997798;28;20078;-74
2023/12/18 11:07:22;;;;;;;21.95;20.35;;;;;;;11.06;100.00;102600.72;4990270;28;20443;-74
2023/12/18 11:09:50;;;;;;;21.95;20.35;;;;;;;11.31;100.00;102591.75;4971708;28;20057;-75
2023/12/18 11:12:24;;;;;;;22.17;20.58;;;;;;;10.81;100.00;102600.66;4989146;28;20104;-74